首页
METAR-TAF:

METAR-TAF

机场 :

黑堡, 弗吉尼亚州, 美国

纬度: 37-13N, 经度: 080-25W, 海拔: 650米

当前天气观测

该预报发布于21分钟前的16:15 UTC
风速7节,风向
温度 18°C
湿度 28%
气压 1028 hPa
能見度: 16.1公里
天空无云

METAR: KBCB 011615Z AUTO 09007KT 10SM CLR 18/M01 A3037 RMK AO2 LTG DSNT NW T01791008

时间: 12:36 (16:36 UTC)

预报

该预报发布于5小时和16分钟前的11:20 UTC
预报有效从01日的 12点(UTC)到 02日的 12点(UTC)
风速3节,风向多变
能見度: 10公里
天空无云
从 01日的 1900点(UTC)
风速5节,风向西
能見度: 10公里
少量云层高于5000英尺
从 02日的 0700点(UTC)
风速节,风向
能見度: 10公里
散云层高于15000英尺

TAF: KBCB 011120Z 0112/0212 VRB03KT P6SM SKC FM011900 27005KT P6SM FEW050 FM020700 00000KT P6SM SCT150

超过4000个机场的气象观测和天气预报(METAR&TAF报告)。

可查询的气象台以黄色和红色小点在地图上表示。

将鼠标移到小点上方,可查看气象台名称。

然后点击查看天气观测和预报。

如需切换地图:点击带黑十字的绿色按钮放大地图;点击带横线的绿色按钮缩小地图;或者点击绿色箭头查看邻近地区的地图。


METAR-TAF: